createdAt,value
2023-05-08T00:01:37.546Z,44.03
2023-05-08T00:04:04.818Z,47.97
2023-05-08T00:06:31.925Z,45.58
2023-05-08T00:08:59.757Z,39.83
2023-05-08T00:11:26.691Z,44.90
2023-05-08T00:13:53.623Z,43.35
2023-05-08T00:16:21.587Z,42.92
2023-05-08T00:18:48.495Z,48.50
2023-05-08T00:21:15.384Z,49.65
2023-05-08T00:23:42.260Z,58.10
2023-05-08T00:26:09.102Z,62.10
2023-05-08T00:28:37.811Z,60.78
2023-05-08T00:31:04.696Z,64.17
2023-05-08T00:33:31.608Z,65.67
2023-05-08T00:36:02.349Z,66.83
2023-05-08T00:38:33.085Z,68.10
2023-05-08T00:41:00.194Z,69.63
2023-05-08T00:43:28.453Z,62.87
2023-05-08T00:45:56.529Z,61.15
2023-05-08T00:48:24.930Z,62.40
2023-05-08T00:50:53.258Z,56.78
2023-05-08T00:53:20.771Z,57.78
2023-05-08T00:55:47.644Z,57.33
2023-05-08T00:58:14.662Z,52.17
2023-05-08T01:00:42.224Z,65.90
2023-05-08T01:03:09.716Z,47.80
2023-05-08T01:05:36.858Z,53.90
2023-05-08T01:08:04.058Z,60.00
2023-05-08T01:10:42.962Z,53.53
2023-05-08T01:13:14.889Z,49.67
2023-05-08T01:15:51.933Z,56.30
2023-05-08T01:18:27.857Z,57.40
2023-05-08T01:21:15.294Z,55.63
2023-05-08T01:23:56.109Z,56.27
2023-05-08T01:26:37.954Z,59.10
2023-05-08T01:29:28.380Z,53.83
2023-05-08T01:32:26.468Z,43.43
2023-05-08T01:35:17.840Z,46.50
2023-05-08T01:38:00.973Z,45.93
2023-05-08T01:40:42.734Z,49.07
2023-05-08T01:43:39.611Z,55.53
2023-05-08T01:46:10.158Z,42.33
2023-05-08T01:48:41.501Z,52.93
2023-05-08T01:51:14.357Z,57.27
2023-05-08T01:53:47.918Z,63.43
2023-05-08T01:56:17.321Z,106.37
2023-05-08T01:58:44.329Z,80.53
2023-05-08T02:01:12.871Z,89.40
2023-05-08T02:03:43.113Z,76.70
2023-05-08T02:06:14.221Z,98.60
2023-05-08T02:08:49.905Z,106.07
2023-05-08T02:11:16.979Z,107.77
2023-05-08T02:13:44.958Z,77.80
2023-05-08T02:16:12.046Z,92.20
2023-05-08T02:18:39.330Z,136.80
2023-05-08T02:21:06.373Z,114.00
2023-05-08T02:23:33.805Z,87.10
2023-05-08T02:26:01.431Z,86.60
2023-05-08T02:28:28.279Z,102.23
2023-05-08T02:30:55.127Z,123.40
2023-05-08T02:33:22.257Z,91.30
2023-05-08T02:35:51.749Z,104.83
2023-05-08T02:38:20.784Z,91.60
2023-05-08T02:40:54.717Z,91.63
2023-05-08T02:43:21.677Z,120.67
2023-05-08T02:45:55.649Z,131.83
2023-05-08T02:48:33.832Z,105.97
2023-05-08T02:51:07.119Z,95.50
2023-05-08T02:53:40.866Z,94.67
2023-05-08T02:56:12.317Z,86.53
2023-05-08T02:58:49.407Z,115.63
2023-05-08T03:01:30.257Z,114.30
2023-05-08T03:04:02.189Z,91.90
2023-05-08T03:06:35.079Z,68.00
2023-05-08T03:09:02.074Z,77.67
2023-05-08T03:11:39.387Z,99.87
2023-05-08T03:14:11.384Z,81.70
2023-05-08T03:16:39.483Z,60.57
2023-05-08T03:19:09.579Z,75.90
2023-05-08T03:21:37.477Z,82.77
2023-05-08T03:24:07.720Z,87.77
2023-05-08T03:26:34.562Z,92.13
2023-05-08T03:29:01.420Z,71.37
2023-05-08T03:31:29.809Z,88.17
2023-05-08T03:33:56.687Z,71.87
2023-05-08T03:36:24.997Z,84.67
2023-05-08T03:38:51.905Z,86.50
2023-05-08T03:41:18.739Z,76.87
2023-05-08T03:43:45.973Z,84.90
2023-05-08T03:46:12.922Z,62.73
2023-05-08T03:48:40.909Z,60.77
2023-05-08T03:51:07.819Z,61.50
2023-05-08T03:53:34.715Z,68.33
2023-05-08T03:56:01.669Z,69.83
2023-05-08T03:59:05.372Z,68.03
2023-05-08T04:01:42.633Z,57.37
2023-05-08T04:04:17.853Z,68.37
2023-05-08T04:07:05.913Z,58.97
2023-05-08T04:09:45.730Z,57.37
2023-05-08T04:12:18.094Z,69.60
2023-05-08T04:14:56.877Z,70.47
2023-05-08T04:17:30.461Z,60.60
2023-05-08T04:20:02.830Z,53.90
2023-05-08T04:22:31.060Z,52.87
2023-05-08T04:24:59.031Z,57.17
2023-05-08T04:27:25.892Z,54.23
2023-05-08T04:29:53.507Z,56.57
2023-05-08T04:32:20.778Z,55.27
2023-05-08T04:34:53.899Z,52.27
2023-05-08T04:37:27.937Z,52.23
2023-05-08T04:39:55.023Z,54.00
2023-05-08T04:42:24.449Z,50.13
2023-05-08T04:44:52.034Z,52.20
2023-05-08T04:47:19.085Z,51.40
2023-05-08T04:49:47.090Z,50.00
2023-05-08T04:52:13.949Z,52.13
2023-05-08T04:54:41.874Z,56.53
2023-05-08T04:57:12.574Z,61.43
2023-05-08T04:59:41.341Z,55.57
2023-05-08T05:02:09.082Z,53.90
2023-05-08T05:04:36.630Z,50.20
2023-05-08T05:07:03.806Z,52.27
2023-05-08T05:09:37.283Z,51.43
2023-05-08T05:12:04.964Z,52.17
2023-05-08T05:14:32.902Z,55.07
2023-05-08T05:17:02.085Z,48.13
2023-05-08T05:19:28.971Z,47.40
2023-05-08T05:21:56.860Z,49.50
2023-05-08T05:24:23.716Z,49.30
2023-05-08T05:26:50.569Z,57.90
2023-05-08T05:29:17.507Z,55.67
2023-05-08T05:31:44.556Z,54.95
2023-05-08T05:34:13.577Z,57.23
2023-05-08T05:36:42.044Z,58.53
2023-05-08T05:39:08.930Z,61.30
2023-05-08T05:41:36.822Z,61.40
2023-05-08T05:44:04.190Z,60.58
2023-05-08T05:46:32.781Z,63.88
2023-05-08T05:48:59.792Z,66.93
2023-05-08T05:51:27.717Z,60.40
2023-05-08T05:53:54.679Z,58.08
2023-05-08T05:56:23.519Z,51.60
2023-05-08T05:58:50.595Z,47.63
2023-05-08T06:01:17.593Z,38.07
2023-05-08T06:03:44.913Z,39.30
2023-05-08T06:06:12.572Z,52.67
2023-05-08T06:08:39.738Z,51.03
2023-05-08T06:11:06.933Z,54.37
2023-05-08T06:13:36.085Z,57.13
2023-05-08T06:16:03.010Z,55.67
2023-05-08T06:18:29.908Z,49.70
2023-05-08T06:20:58.130Z,51.40
2023-05-08T06:23:25.674Z,50.03
2023-05-08T06:25:54.008Z,51.78
2023-05-08T06:28:22.652Z,53.40
2023-05-08T06:30:49.636Z,49.15
2023-05-08T06:33:16.601Z,48.47
2023-05-08T06:35:49.278Z,44.65
2023-05-08T06:38:16.365Z,46.47
2023-05-08T06:40:44.394Z,49.23
2023-05-08T06:43:11.810Z,47.13
2023-05-08T06:45:39.151Z,47.57
2023-05-08T06:48:06.540Z,47.03
2023-05-08T06:50:33.526Z,46.63
2023-05-08T06:53:00.394Z,48.72
2023-05-08T06:55:27.249Z,45.88
2023-05-08T06:57:54.080Z,46.95
2023-05-08T07:00:21.338Z,41.40
2023-05-08T07:02:48.182Z,42.53
2023-05-08T07:05:15.612Z,38.95
2023-05-08T07:07:42.936Z,40.80
2023-05-08T07:10:10.334Z,41.65
2023-05-08T07:12:37.299Z,37.03
2023-05-08T07:15:13.877Z,40.60
2023-05-08T07:17:51.362Z,41.38
2023-05-08T07:20:18.337Z,41.85
2023-05-08T07:22:47.187Z,44.25
2023-05-08T07:25:14.153Z,39.13
2023-05-08T07:27:41.317Z,39.30
2023-05-08T07:30:09.635Z,38.58
2023-05-08T07:32:36.685Z,38.70
2023-05-08T07:35:03.946Z,34.15
2023-05-08T07:37:30.826Z,35.95
2023-05-08T07:39:57.765Z,35.38
2023-05-08T07:42:24.740Z,33.55
2023-05-08T07:44:54.902Z,37.75
2023-05-08T07:47:22.505Z,32.47
2023-05-08T07:49:49.578Z,31.75
2023-05-08T07:52:16.847Z,36.08
2023-05-08T07:54:44.739Z,33.67
2023-05-08T07:57:11.795Z,34.53
2023-05-08T07:59:38.877Z,34.20
2023-05-08T08:02:07.568Z,29.70
2023-05-08T08:04:34.639Z,30.63
2023-05-08T08:07:04.278Z,33.40
2023-05-08T08:09:31.305Z,36.28
2023-05-08T08:11:58.461Z,43.13
2023-05-08T08:14:26.361Z,32.85
2023-05-08T08:16:53.275Z,31.13
2023-05-08T08:19:20.443Z,25.45
2023-05-08T08:21:47.427Z,26.25
2023-05-08T08:24:14.261Z,29.30
2023-05-08T08:26:41.231Z,28.70
2023-05-08T08:29:08.110Z,28.67
2023-05-08T08:31:35.151Z,25.52
2023-05-08T08:34:02.203Z,31.75
2023-05-08T08:36:29.313Z,32.63
2023-05-08T08:38:56.206Z,27.92
2023-05-08T08:41:23.470Z,27.55
2023-05-08T08:43:50.556Z,30.88
2023-05-08T08:46:19.118Z,26.90
2023-05-08T08:48:46.998Z,29.40
2023-05-08T08:51:28.622Z,26.10
2023-05-08T08:54:04.805Z,28.73
2023-05-08T08:56:33.108Z,26.77
2023-05-08T08:59:00.581Z,28.05
2023-05-08T09:01:29.348Z,26.98
2023-05-08T09:03:59.892Z,27.38
2023-05-08T09:06:27.798Z,28.88
2023-05-08T09:08:58.331Z,24.63
2023-05-08T09:11:25.851Z,31.55
2023-05-08T09:13:52.788Z,36.38
2023-05-08T09:16:19.736Z,32.25
2023-05-08T09:18:46.624Z,33.53
2023-05-08T09:21:13.523Z,30.98
2023-05-08T09:23:56.815Z,32.17
2023-05-08T09:26:36.974Z,28.83
2023-05-08T09:29:13.569Z,31.27
2023-05-08T09:31:44.639Z,31.48
2023-05-08T09:34:24.826Z,29.60
2023-05-08T09:36:51.674Z,31.15
2023-05-08T09:39:23.795Z,28.13
2023-05-08T09:42:06.114Z,25.52
2023-05-08T09:44:54.708Z,27.38
2023-05-08T09:47:23.012Z,35.90
2023-05-08T09:50:07.518Z,27.73
2023-05-08T09:52:35.158Z,25.15
2023-05-08T09:55:06.444Z,25.30
2023-05-08T09:57:36.423Z,22.70
2023-05-08T10:00:09.862Z,23.52
2023-05-08T10:02:37.380Z,24.38
2023-05-08T10:05:05.912Z,20.98
2023-05-08T10:07:34.467Z,24.52
2023-05-08T10:10:03.039Z,23.58
2023-05-08T10:12:30.442Z,27.67
2023-05-08T10:14:57.711Z,26.30
2023-05-08T10:17:38.121Z,30.02
2023-05-08T10:20:07.425Z,26.60
2023-05-08T10:22:37.178Z,25.85
2023-05-08T10:25:05.165Z,26.25
2023-05-08T10:27:36.002Z,26.85
2023-05-08T10:30:04.277Z,25.35
2023-05-08T10:32:38.135Z,29.95
2023-05-08T10:35:05.354Z,28.83
2023-05-08T10:37:32.400Z,28.30
2023-05-08T10:39:59.300Z,29.52
2023-05-08T10:42:26.592Z,31.80
2023-05-08T10:44:53.716Z,30.58
2023-05-08T10:47:55.834Z,30.02
2023-05-08T10:50:40.551Z,33.58
2023-05-08T10:53:12.535Z,32.88
2023-05-08T10:55:39.937Z,34.22
2023-05-08T10:58:16.900Z,31.65
2023-05-08T11:00:49.734Z,32.28
2023-05-08T11:03:30.430Z,34.78
2023-05-08T11:06:00.401Z,29.40
2023-05-08T11:08:28.810Z,31.40
2023-05-08T11:11:05.247Z,32.22
2023-05-08T11:13:38.896Z,27.98
2023-05-08T11:16:11.232Z,27.90
2023-05-08T11:18:48.990Z,29.65
2023-05-08T11:21:21.834Z,30.50
2023-05-08T11:23:56.792Z,27.73
2023-05-08T11:26:23.745Z,30.60
2023-05-08T11:28:53.629Z,28.05
2023-05-08T11:31:20.826Z,30.77
2023-05-08T11:33:47.776Z,27.40
2023-05-08T11:36:22.888Z,28.55
2023-05-08T11:39:09.741Z,29.35
2023-05-08T11:41:36.597Z,26.88
2023-05-08T11:44:09.150Z,33.40
2023-05-08T11:46:50.732Z,28.58
2023-05-08T11:49:21.433Z,31.80
2023-05-08T11:51:55.292Z,34.20
2023-05-08T11:54:22.474Z,34.20
2023-05-08T11:56:50.766Z,32.88
2023-05-08T11:59:17.900Z,33.25
2023-05-08T12:01:53.632Z,27.98
2023-05-08T12:04:27.403Z,30.30
2023-05-08T12:06:57.697Z,30.17
2023-05-08T12:09:24.626Z,37.55
2023-05-08T12:11:56.244Z,32.97
2023-05-08T12:14:23.307Z,37.50
2023-05-08T12:16:51.242Z,38.88
2023-05-08T12:19:18.165Z,37.08
2023-05-08T12:21:51.574Z,33.25
2023-05-08T12:24:24.465Z,30.83
2023-05-08T12:26:55.364Z,39.63
2023-05-08T12:29:23.126Z,39.08
2023-05-08T12:31:50.133Z,43.13
2023-05-08T12:34:17.095Z,42.80
2023-05-08T12:36:44.083Z,40.08
2023-05-08T12:39:18.248Z,41.67
2023-05-08T12:41:52.046Z,41.78
2023-05-08T12:44:25.714Z,41.10
2023-05-08T12:46:53.440Z,40.75
2023-05-08T12:49:28.142Z,42.97
2023-05-08T12:52:06.750Z,37.72
2023-05-08T12:54:38.406Z,40.35
2023-05-08T12:57:15.852Z,37.67
2023-05-08T12:59:43.108Z,42.10
2023-05-08T13:02:18.089Z,36.63
2023-05-08T13:04:45.519Z,35.30
2023-05-08T13:07:12.418Z,36.10
2023-05-08T13:09:39.794Z,31.92
2023-05-08T13:12:06.905Z,40.85
2023-05-08T13:14:33.841Z,37.90
2023-05-08T13:17:00.794Z,34.75
2023-05-08T13:19:28.510Z,35.08
2023-05-08T13:21:55.396Z,27.92
2023-05-08T13:24:22.312Z,26.83
2023-05-08T13:26:49.142Z,27.70
2023-05-08T13:29:16.097Z,31.77
2023-05-08T13:31:43.087Z,23.13
2023-05-08T13:34:10.142Z,23.55
2023-05-08T13:36:37.054Z,24.73
2023-05-08T13:39:04.007Z,12.32
2023-05-08T13:41:30.865Z,24.67
2023-05-08T13:43:57.769Z,18.33
2023-05-08T13:46:25.215Z,16.70
2023-05-08T13:48:52.122Z,17.65
2023-05-08T13:51:18.978Z,13.52
2023-05-08T13:53:45.942Z,14.18
2023-05-08T13:56:12.787Z,14.00
2023-05-08T13:58:40.305Z,12.13
2023-05-08T14:01:22.024Z,15.32
2023-05-08T14:03:53.105Z,17.17
2023-05-08T14:06:20.637Z,13.57
2023-05-08T14:08:50.428Z,22.13
2023-05-08T14:11:18.507Z,16.13
2023-05-08T14:13:45.400Z,15.88
2023-05-08T14:16:14.423Z,13.05
2023-05-08T14:18:41.369Z,12.23
2023-05-08T14:21:08.251Z,13.98
2023-05-08T14:23:36.072Z,11.00
2023-05-08T14:26:03.094Z,21.92
2023-05-08T14:28:29.997Z,11.20
2023-05-08T14:30:56.998Z,15.23
2023-05-08T14:33:23.986Z,13.57
2023-05-08T14:35:50.880Z,12.73
2023-05-08T14:38:17.710Z,15.65
2023-05-08T14:40:44.603Z,10.20
2023-05-08T14:43:11.469Z,13.95
2023-05-08T14:45:38.333Z,14.98
2023-05-08T14:48:06.204Z,11.05
2023-05-08T14:50:33.092Z,14.40
2023-05-08T14:53:00.018Z,10.65
2023-05-08T14:55:27.173Z,12.55
2023-05-08T14:57:54.259Z,10.30
2023-05-08T15:00:21.486Z,14.30
2023-05-08T15:02:48.599Z,17.65
2023-05-08T15:05:20.046Z,9.38
2023-05-08T15:07:47.388Z,7.07
2023-05-08T15:10:14.291Z,12.95
2023-05-08T15:12:41.215Z,10.10
2023-05-08T15:15:08.384Z,10.07
2023-05-08T15:17:36.522Z,14.88
2023-05-08T15:20:04.079Z,9.80
2023-05-08T15:22:31.002Z,12.80
2023-05-08T15:25:02.496Z,12.88
2023-05-08T15:27:29.966Z,12.45
2023-05-08T15:29:56.898Z,8.23
2023-05-08T15:32:24.154Z,11.18
2023-05-08T15:34:51.088Z,10.13
2023-05-08T15:37:18.001Z,11.95
2023-05-08T15:39:44.852Z,9.82
2023-05-08T15:42:11.801Z,13.82
2023-05-08T15:44:53.882Z,8.40
2023-05-08T15:47:23.271Z,14.27
2023-05-08T15:49:51.065Z,11.25
2023-05-08T15:52:19.674Z,13.00
2023-05-08T15:54:47.287Z,10.25
2023-05-08T15:57:14.285Z,12.73
2023-05-08T15:59:41.252Z,17.45
2023-05-08T16:02:08.279Z,12.93
2023-05-08T16:04:35.245Z,11.32
2023-05-08T16:07:02.102Z,11.43
2023-05-08T16:09:28.934Z,14.85
2023-05-08T16:11:55.948Z,11.40
2023-05-08T16:14:22.824Z,14.70
2023-05-08T16:16:49.863Z,15.55
2023-05-08T16:19:16.728Z,13.07
2023-05-08T16:21:46.935Z,14.85
2023-05-08T16:24:14.189Z,11.43
2023-05-08T16:26:41.081Z,11.13
2023-05-08T16:29:07.989Z,12.93
2023-05-08T16:31:34.850Z,14.38
2023-05-08T16:34:01.708Z,12.75
2023-05-08T16:36:28.742Z,9.10
2023-05-08T16:38:55.713Z,13.10
2023-05-08T16:41:23.136Z,14.50
2023-05-08T16:43:51.088Z,10.32
2023-05-08T16:46:29.154Z,11.60
2023-05-08T16:48:57.150Z,11.82
2023-05-08T16:51:24.059Z,14.80
2023-05-08T16:53:50.883Z,10.80
2023-05-08T16:56:18.176Z,16.00
2023-05-08T16:58:45.181Z,14.77
2023-05-08T17:01:13.004Z,17.23
2023-05-08T17:03:39.937Z,16.23
2023-05-08T17:06:09.322Z,11.48
2023-05-08T17:08:36.204Z,11.27
2023-05-08T17:11:03.272Z,16.05
2023-05-08T17:13:30.290Z,13.45
2023-05-08T17:15:57.967Z,19.15
2023-05-08T17:18:24.931Z,13.35
2023-05-08T17:20:51.882Z,16.33
2023-05-08T17:23:19.732Z,19.15
2023-05-08T17:25:47.623Z,20.05
2023-05-08T17:28:14.546Z,15.60
2023-05-08T17:30:41.432Z,15.07
2023-05-08T17:33:08.446Z,13.15
2023-05-08T17:35:35.390Z,14.52
2023-05-08T17:38:02.271Z,17.35
2023-05-08T17:40:29.276Z,18.00
2023-05-08T17:42:56.230Z,16.05
2023-05-08T17:45:23.135Z,12.48
2023-05-08T17:47:50.252Z,15.00
2023-05-08T17:50:17.180Z,13.02
2023-05-08T17:52:44.036Z,15.20
2023-05-08T17:55:11.009Z,17.85
2023-05-08T17:57:37.893Z,17.88
2023-05-08T18:00:07.409Z,17.05
2023-05-08T18:02:34.374Z,16.50
2023-05-08T18:05:01.805Z,18.88
2023-05-08T18:07:28.646Z,14.35
2023-05-08T18:09:55.903Z,15.65
2023-05-08T18:12:22.956Z,18.23
2023-05-08T18:14:49.905Z,13.73
2023-05-08T18:17:19.329Z,14.07
2023-05-08T18:19:46.619Z,16.67
2023-05-08T18:22:13.500Z,15.52
2023-05-08T18:24:40.503Z,20.58
2023-05-08T18:27:07.413Z,18.63
2023-05-08T18:29:34.248Z,15.02
2023-05-08T18:32:01.086Z,18.77
2023-05-08T18:34:27.961Z,14.43
2023-05-08T18:36:56.130Z,14.57
2023-05-08T18:39:24.862Z,15.77
2023-05-08T18:41:51.758Z,18.00
2023-05-08T18:44:18.636Z,16.65
2023-05-08T18:46:45.657Z,19.25
2023-05-08T18:49:12.590Z,17.67
2023-05-08T18:51:39.483Z,15.40
2023-05-08T18:54:06.366Z,17.40
2023-05-08T18:56:34.344Z,15.20
2023-05-08T18:59:03.736Z,12.32
2023-05-08T19:01:30.607Z,19.40
2023-05-08T19:03:59.571Z,13.60
2023-05-08T19:06:26.483Z,18.23
2023-05-08T19:08:53.658Z,15.35
2023-05-08T19:11:20.500Z,19.25
2023-05-08T19:13:50.009Z,14.65
2023-05-08T19:16:17.070Z,14.52
2023-05-08T19:18:47.111Z,17.55
2023-05-08T19:21:14.014Z,13.90
2023-05-08T19:23:40.873Z,13.43
2023-05-08T19:26:07.835Z,18.08
2023-05-08T19:28:37.787Z,18.88
2023-05-08T19:31:04.642Z,14.05
2023-05-08T19:33:31.513Z,11.45
2023-05-08T19:35:58.451Z,15.15
2023-05-08T19:38:25.284Z,13.88
2023-05-08T19:40:56.356Z,14.80
2023-05-08T19:43:25.412Z,12.38
2023-05-08T19:45:52.443Z,16.33
2023-05-08T19:48:20.176Z,14.27
2023-05-08T19:50:47.302Z,16.15
2023-05-08T19:53:15.275Z,11.93
2023-05-08T19:55:42.121Z,16.65
2023-05-08T19:58:09.993Z,11.57
2023-05-08T20:00:39.925Z,13.18
2023-05-08T20:03:07.889Z,15.05
2023-05-08T20:05:34.845Z,17.83
2023-05-08T20:08:01.793Z,20.00
2023-05-08T20:10:28.681Z,13.30
2023-05-08T20:12:55.559Z,16.52
2023-05-08T20:15:28.203Z,15.85
2023-05-08T20:17:55.689Z,18.85
2023-05-08T20:20:22.750Z,19.80
2023-05-08T20:22:49.598Z,20.52
2023-05-08T20:25:16.477Z,18.27
2023-05-08T20:27:43.404Z,19.10
2023-05-08T20:30:10.409Z,18.17
2023-05-08T20:32:37.385Z,20.42
2023-05-08T20:35:04.478Z,16.15
2023-05-08T20:37:31.448Z,19.83
2023-05-08T20:39:58.371Z,24.08
2023-05-08T20:42:25.373Z,22.55
2023-05-08T20:44:52.265Z,26.08
2023-05-08T20:47:19.213Z,21.25
2023-05-08T20:49:46.135Z,17.83
2023-05-08T20:52:13.065Z,19.88
2023-05-08T20:54:45.442Z,20.00
2023-05-08T20:57:13.195Z,16.52
2023-05-08T20:59:40.059Z,14.32
2023-05-08T21:02:06.982Z,17.83
2023-05-08T21:04:33.965Z,15.88
2023-05-08T21:07:00.948Z,20.85
2023-05-08T21:09:33.815Z,23.08
2023-05-08T21:12:01.724Z,19.15
2023-05-08T21:14:28.573Z,21.92
2023-05-08T21:16:55.730Z,21.70
2023-05-08T21:19:23.765Z,19.65
2023-05-08T21:21:50.626Z,21.20
2023-05-08T21:24:17.531Z,22.08
2023-05-08T21:26:44.406Z,18.33
2023-05-08T21:29:11.398Z,23.50
2023-05-08T21:31:38.410Z,15.68
2023-05-08T21:34:06.998Z,26.60
2023-05-08T21:36:35.286Z,17.95
2023-05-08T21:39:02.705Z,18.67
2023-05-08T21:41:33.195Z,25.55
2023-05-08T21:44:00.131Z,21.23
2023-05-08T21:46:27.009Z,22.25
2023-05-08T21:48:53.951Z,19.45
2023-05-08T21:51:21.791Z,19.20
2023-05-08T21:53:49.683Z,23.58
2023-05-08T21:56:18.623Z,18.98
2023-05-08T21:58:45.510Z,20.90
2023-05-08T22:01:13.403Z,25.92
2023-05-08T22:03:40.536Z,20.50
2023-05-08T22:06:07.737Z,20.73
2023-05-08T22:08:34.596Z,26.42
2023-05-08T22:11:01.569Z,21.33
2023-05-08T22:13:30.580Z,25.15
2023-05-08T22:15:57.512Z,23.30
2023-05-08T22:18:24.453Z,25.08
2023-05-08T22:20:51.362Z,25.35
2023-05-08T22:23:18.412Z,29.30
2023-05-08T22:25:45.250Z,25.75
2023-05-08T22:28:12.243Z,23.23
2023-05-08T22:30:40.167Z,24.95
2023-05-08T22:33:07.144Z,29.25
2023-05-08T22:35:39.091Z,23.25
2023-05-08T22:38:05.943Z,26.58
2023-05-08T22:40:33.347Z,23.67
2023-05-08T22:43:00.276Z,23.40
2023-05-08T22:45:27.233Z,25.40
2023-05-08T22:47:54.636Z,23.60
2023-05-08T22:50:21.630Z,23.52
2023-05-08T22:52:48.465Z,22.10
2023-05-08T22:55:16.122Z,22.00
2023-05-08T22:57:43.572Z,23.55
2023-05-08T23:00:13.848Z,20.88
2023-05-08T23:02:40.749Z,24.58
2023-05-08T23:05:14.587Z,22.15
2023-05-08T23:07:42.861Z,20.15
2023-05-08T23:10:10.192Z,26.13
2023-05-08T23:12:37.099Z,25.70
2023-05-08T23:15:05.235Z,21.65
2023-05-08T23:17:33.175Z,24.17
2023-05-08T23:20:00.226Z,27.33
2023-05-08T23:22:28.637Z,27.98
2023-05-08T23:24:56.524Z,20.92
2023-05-08T23:27:25.720Z,26.05
2023-05-08T23:29:52.606Z,24.80
2023-05-08T23:32:19.477Z,22.83
2023-05-08T23:34:46.302Z,25.13
2023-05-08T23:37:13.332Z,29.52
2023-05-08T23:39:41.432Z,25.45
2023-05-08T23:42:08.640Z,30.85
2023-05-08T23:44:37.880Z,29.38
2023-05-08T23:47:04.893Z,26.95
2023-05-08T23:49:31.722Z,29.88
2023-05-08T23:51:59.576Z,27.15
2023-05-08T23:54:29.462Z,29.58
2023-05-08T23:56:56.365Z,27.40
2023-05-08T23:59:23.266Z,27.58
